createdAt,value
2019-02-08T00:01:41.684Z,22.67
2019-02-08T00:04:11.355Z,22.60
2019-02-08T00:06:41.042Z,22.47
2019-02-08T00:09:11.821Z,23.47
2019-02-08T00:11:41.566Z,23.03
2019-02-08T00:14:11.603Z,25.13
2019-02-08T00:16:41.230Z,23.57
2019-02-08T00:19:11.051Z,23.03
2019-02-08T00:21:40.725Z,24.87
2019-02-08T00:24:10.490Z,25.77
2019-02-08T00:26:40.117Z,24.53
2019-02-08T00:29:10.207Z,23.37
2019-02-08T00:31:39.961Z,24.27
2019-02-08T00:34:09.922Z,24.27
2019-02-08T00:36:39.559Z,23.90
2019-02-08T00:39:11.985Z,24.57
2019-02-08T00:41:41.720Z,24.47
2019-02-08T00:44:11.331Z,24.60
2019-02-08T00:46:41.119Z,25.33
2019-02-08T00:49:10.908Z,25.77
2019-02-08T00:51:40.446Z,24.80
2019-02-08T00:54:10.287Z,25.33
2019-02-08T00:56:40.012Z,25.20
2019-02-08T00:59:10.174Z,25.20
2019-02-08T01:01:39.626Z,27.27
2019-02-08T01:04:09.494Z,26.47
2019-02-08T01:06:39.197Z,27.23
2019-02-08T01:09:10.308Z,26.20
2019-02-08T01:11:40.032Z,27.07
2019-02-08T01:14:09.995Z,26.87
2019-02-08T01:16:39.829Z,25.40
2019-02-08T01:19:09.627Z,24.27
2019-02-08T01:21:39.101Z,23.20
2019-02-08T01:24:08.797Z,24.20
2019-02-08T01:26:38.516Z,24.13
2019-02-08T01:29:08.300Z,22.43
2019-02-08T01:31:38.092Z,22.73
2019-02-08T01:34:08.073Z,23.43
2019-02-08T01:36:37.800Z,23.67
2019-02-08T01:39:08.917Z,22.83
2019-02-08T01:41:38.782Z,23.50
2019-02-08T01:44:08.584Z,24.53
2019-02-08T01:46:38.348Z,23.60
2019-02-08T01:49:08.020Z,24.03
2019-02-08T01:51:37.934Z,23.27
2019-02-08T01:54:07.708Z,25.07
2019-02-08T01:56:37.338Z,26.67
2019-02-08T01:59:07.203Z,24.37
2019-02-08T02:01:37.069Z,26.30
2019-02-08T02:04:07.092Z,23.73
2019-02-08T02:06:36.718Z,23.50
2019-02-08T02:09:08.548Z,24.37
2019-02-08T02:11:38.225Z,25.30
2019-02-08T02:14:08.098Z,24.73
2019-02-08T02:16:37.927Z,24.73
2019-02-08T02:19:07.870Z,24.70
2019-02-08T02:21:37.442Z,24.77
2019-02-08T02:24:07.316Z,25.27
2019-02-08T02:26:37.006Z,26.40
2019-02-08T02:29:06.944Z,25.13
2019-02-08T02:31:36.566Z,24.73
2019-02-08T02:34:06.567Z,23.47
2019-02-08T02:36:36.354Z,24.57
2019-02-08T02:39:09.459Z,24.17
2019-02-08T02:41:39.298Z,23.50
2019-02-08T02:44:08.917Z,22.90
2019-02-08T02:46:38.607Z,20.90
2019-02-08T02:49:08.045Z,21.20
2019-02-08T02:51:37.918Z,20.17
2019-02-08T02:54:07.682Z,23.17
2019-02-08T02:56:37.322Z,22.70
2019-02-08T02:59:07.484Z,23.10
2019-02-08T03:01:37.167Z,22.00
2019-02-08T03:04:07.047Z,22.53
2019-02-08T03:06:36.879Z,23.00
2019-02-08T03:09:09.765Z,21.67
2019-02-08T03:11:39.593Z,23.33
2019-02-08T03:14:09.202Z,23.23
2019-02-08T03:16:38.956Z,22.97
2019-02-08T03:19:09.630Z,22.83
2019-02-08T03:21:39.185Z,25.13
2019-02-08T03:24:12.986Z,25.97
2019-02-08T03:26:40.382Z,24.50
2019-02-08T03:29:10.043Z,24.13
2019-02-08T03:31:39.743Z,25.47
2019-02-08T03:34:09.557Z,24.50
2019-02-08T03:36:39.542Z,27.67
2019-02-08T03:39:09.887Z,25.30
2019-02-08T03:41:39.708Z,31.37
2019-02-08T03:44:09.436Z,25.10
2019-02-08T03:46:39.154Z,34.90
2019-02-08T03:49:09.037Z,24.67
2019-02-08T03:51:38.937Z,24.77
2019-02-08T03:54:08.612Z,25.67
2019-02-08T03:56:38.236Z,25.07
2019-02-08T03:59:07.791Z,22.60
2019-02-08T04:01:37.671Z,21.73
2019-02-08T04:04:16.586Z,21.17
2019-02-08T04:06:46.425Z,20.13
2019-02-08T04:09:16.111Z,18.47
2019-02-08T04:11:45.796Z,17.27
2019-02-08T04:14:15.604Z,17.80
2019-02-08T04:16:45.460Z,29.53
2019-02-08T04:19:15.236Z,17.37
2019-02-08T04:21:44.767Z,17.43
2019-02-08T04:24:14.482Z,16.33
2019-02-08T04:26:44.158Z,16.63
2019-02-08T04:29:13.777Z,16.17
2019-02-08T04:31:43.494Z,16.90
2019-02-08T04:34:13.189Z,15.37
2019-02-08T04:36:42.793Z,15.10
2019-02-08T04:39:12.411Z,16.87
2019-02-08T04:41:41.998Z,26.87
2019-02-08T04:44:11.927Z,27.17
2019-02-08T04:46:41.554Z,17.50
2019-02-08T04:49:11.139Z,17.77
2019-02-08T04:51:40.754Z,22.00
2019-02-08T04:54:10.445Z,36.23
2019-02-08T04:56:40.150Z,19.50
2019-02-08T04:59:10.015Z,20.37
2019-02-08T05:01:39.662Z,23.57
2019-02-08T05:04:09.399Z,27.87
2019-02-08T05:06:39.086Z,27.50
2019-02-08T05:09:09.647Z,26.80
2019-02-08T05:11:39.450Z,24.63
2019-02-08T05:14:09.338Z,24.37
2019-02-08T05:16:38.920Z,24.33
2019-02-08T05:19:08.678Z,26.50
2019-02-08T05:21:38.402Z,25.10
2019-02-08T05:24:08.182Z,36.93
2019-02-08T05:26:37.833Z,34.63
2019-02-08T05:29:07.645Z,34.43
2019-02-08T05:31:37.415Z,26.30
2019-02-08T05:34:07.258Z,19.97
2019-02-08T05:36:36.976Z,19.73
2019-02-08T05:39:10.647Z,16.73
2019-02-08T05:41:40.419Z,15.50
2019-02-08T05:44:10.197Z,13.63
2019-02-08T05:46:39.980Z,14.90
2019-02-08T05:49:09.817Z,16.20
2019-02-08T05:51:39.427Z,16.73
2019-02-08T05:54:09.317Z,16.50
2019-02-08T05:56:38.994Z,33.80
2019-02-08T05:59:09.055Z,32.03
2019-02-08T06:01:38.550Z,22.27
2019-02-08T06:04:08.218Z,18.33
2019-02-08T06:06:37.940Z,17.97
2019-02-08T06:09:10.037Z,20.43
2019-02-08T06:11:39.550Z,20.83
2019-02-08T06:14:09.317Z,21.73
2019-02-08T06:16:39.051Z,20.37
2019-02-08T06:19:08.584Z,20.00
2019-02-08T06:21:38.334Z,21.17
2019-02-08T06:24:08.032Z,22.17
2019-02-08T06:26:37.721Z,23.50
2019-02-08T06:29:07.630Z,21.70
2019-02-08T06:31:37.316Z,20.77
2019-02-08T06:34:07.091Z,20.70
2019-02-08T06:36:36.705Z,20.20
2019-02-08T06:39:09.341Z,26.83
2019-02-08T06:41:39.077Z,26.50
2019-02-08T06:44:08.814Z,20.07
2019-02-08T06:46:38.433Z,20.40
2019-02-08T06:49:08.213Z,19.47
2019-02-08T06:51:37.995Z,18.97
2019-02-08T06:54:07.749Z,19.03
2019-02-08T06:56:58.936Z,18.73
2019-02-08T06:59:47.527Z,18.03
2019-02-08T07:02:39.270Z,18.73
2019-02-08T07:05:26.995Z,19.00
2019-02-08T07:08:18.543Z,20.50
2019-02-08T07:10:59.179Z,19.17
2019-02-08T07:13:40.552Z,20.27
2019-02-08T07:16:22.779Z,20.33
2019-02-08T07:19:08.086Z,18.73
2019-02-08T07:21:45.058Z,18.67
2019-02-08T07:24:49.021Z,19.23
2019-02-08T07:27:26.670Z,19.80
2019-02-08T07:30:14.733Z,22.87
2019-02-08T07:33:06.528Z,21.43
2019-02-08T07:36:01.506Z,21.40
2019-02-08T07:38:56.004Z,20.57
2019-02-08T07:41:45.745Z,21.63
2019-02-08T07:44:35.032Z,23.90
2019-02-08T07:47:13.594Z,18.23
2019-02-08T07:49:55.626Z,17.37
2019-02-08T07:52:53.630Z,17.40
2019-02-08T07:55:57.486Z,17.07
2019-02-08T07:58:46.255Z,20.07
2019-02-08T08:01:34.323Z,19.83
2019-02-08T08:04:21.826Z,21.70
2019-02-08T08:07:00.712Z,21.60
2019-02-08T08:09:45.516Z,24.07
2019-02-08T08:12:27.387Z,21.60
2019-02-08T08:15:17.417Z,20.47
2019-02-08T08:18:00.313Z,19.80
2019-02-08T08:20:47.926Z,24.60
2019-02-08T08:23:37.442Z,20.57
2019-02-08T08:26:26.685Z,21.00
2019-02-08T08:29:18.367Z,20.60
2019-02-08T08:32:19.537Z,21.27
2019-02-08T08:35:51.087Z,22.03
2019-02-08T08:39:02.014Z,22.53
2019-02-08T08:42:05.429Z,21.03
2019-02-08T08:45:31.222Z,21.93
2019-02-08T08:48:56.583Z,19.57
2019-02-08T08:52:01.908Z,21.40
2019-02-08T08:55:21.095Z,20.53
2019-02-08T08:58:45.272Z,22.57
2019-02-08T09:02:01.464Z,21.57
2019-02-08T09:05:35.968Z,22.67
2019-02-08T09:08:28.345Z,20.10
2019-02-08T09:12:00.175Z,21.23
2019-02-08T09:15:02.071Z,21.30
2019-02-08T09:18:21.190Z,55.07
2019-02-08T09:21:27.361Z,22.60
2019-02-08T09:24:29.430Z,21.73
2019-02-08T09:27:38.445Z,22.80
2019-02-08T09:30:53.289Z,21.87
2019-02-08T09:33:48.839Z,21.13
2019-02-08T09:37:10.775Z,21.00
2019-02-08T09:40:17.811Z,19.43
2019-02-08T09:43:43.536Z,22.23
2019-02-08T09:46:48.792Z,21.33
2019-02-08T09:50:04.243Z,32.97
2019-02-08T09:53:11.840Z,28.10
2019-02-08T09:56:24.344Z,22.67
2019-02-08T10:00:08.376Z,21.20
2019-02-08T10:03:30.890Z,23.20
2019-02-08T10:06:34.414Z,21.17
2019-02-08T10:09:39.733Z,20.07
2019-02-08T10:13:05.568Z,17.37
2019-02-08T10:16:12.327Z,20.37
2019-02-08T10:19:21.572Z,20.07
2019-02-08T10:22:43.010Z,18.97
2019-02-08T10:26:11.442Z,20.30
2019-02-08T10:29:23.348Z,20.07
2019-02-08T10:32:41.777Z,21.80
2019-02-08T10:36:16.395Z,21.80
2019-02-08T10:39:26.529Z,21.70
2019-02-08T10:42:38.434Z,22.37
2019-02-08T10:46:03.230Z,21.67
2019-02-08T10:49:08.672Z,19.97
2019-02-08T10:52:20.781Z,20.13
2019-02-08T10:55:30.090Z,20.43
2019-02-08T10:58:36.500Z,18.20
2019-02-08T11:01:59.999Z,19.77
2019-02-08T11:05:29.635Z,18.87
2019-02-08T11:08:52.128Z,20.30
2019-02-08T11:12:08.544Z,22.37
2019-02-08T11:15:30.894Z,21.20
2019-02-08T11:18:53.323Z,22.53
2019-02-08T11:21:23.189Z,22.33
2019-02-08T11:23:52.865Z,23.33
2019-02-08T11:26:24.554Z,23.53
2019-02-08T11:28:54.182Z,22.13
2019-02-08T11:31:23.842Z,21.67
2019-02-08T11:33:53.757Z,22.53
2019-02-08T11:36:23.612Z,21.47
2019-02-08T11:38:53.482Z,21.10
2019-02-08T11:41:23.284Z,20.40
2019-02-08T11:43:53.037Z,22.73
2019-02-08T11:46:22.668Z,21.23
2019-02-08T11:48:52.246Z,22.87
2019-02-08T11:51:21.944Z,21.57
2019-02-08T11:53:51.701Z,22.60
2019-02-08T11:56:21.371Z,20.83
2019-02-08T11:58:51.152Z,22.13
2019-02-08T12:01:20.878Z,22.10
2019-02-08T12:03:50.587Z,21.57
2019-02-08T12:06:20.270Z,22.77
2019-02-08T12:08:49.960Z,20.57
2019-02-08T12:11:19.741Z,20.60
2019-02-08T12:13:49.273Z,21.27
2019-02-08T12:16:19.083Z,20.57
2019-02-08T12:18:48.833Z,20.73
2019-02-08T12:21:18.546Z,20.53
2019-02-08T12:23:48.207Z,19.17
2019-02-08T12:26:17.925Z,21.13
2019-02-08T12:28:47.655Z,20.60
2019-02-08T12:31:17.434Z,20.43
2019-02-08T12:33:47.043Z,20.03
2019-02-08T12:36:16.804Z,19.37
2019-02-08T12:38:46.418Z,19.13
2019-02-08T12:41:15.964Z,20.00
2019-02-08T12:43:45.883Z,20.03
2019-02-08T12:46:15.555Z,20.07
2019-02-08T12:48:45.170Z,20.53
2019-02-08T12:51:15.228Z,20.70
2019-02-08T12:53:44.879Z,19.80
2019-02-08T12:56:14.552Z,18.53
2019-02-08T12:58:44.272Z,19.23
2019-02-08T13:01:14.019Z,19.80
2019-02-08T13:03:43.667Z,24.47
2019-02-08T13:06:13.729Z,25.07
2019-02-08T13:08:43.344Z,17.50
2019-02-08T13:11:13.090Z,16.30
2019-02-08T13:13:42.757Z,13.70
2019-02-08T13:16:12.435Z,16.87
2019-02-08T13:18:41.982Z,15.57
2019-02-08T13:21:11.885Z,14.07
2019-02-08T13:23:43.143Z,14.03
2019-02-08T13:26:12.986Z,14.97
2019-02-08T13:28:42.500Z,14.53
2019-02-08T13:31:12.228Z,13.57
2019-02-08T13:33:42.032Z,44.73
2019-02-08T13:36:14.750Z,20.27
2019-02-08T13:38:44.482Z,24.97
2019-02-08T13:41:14.194Z,24.00
2019-02-08T13:43:43.930Z,17.33
2019-02-08T13:46:13.561Z,17.00
2019-02-08T13:48:43.411Z,16.60
2019-02-08T13:51:13.156Z,15.97
2019-02-08T13:53:43.081Z,16.80
2019-02-08T13:56:12.835Z,15.07
2019-02-08T13:58:42.513Z,16.00
2019-02-08T14:01:12.094Z,15.53
2019-02-08T14:03:41.739Z,14.20
2019-02-08T14:06:11.581Z,17.10
2019-02-08T14:08:41.147Z,14.70
2019-02-08T14:11:10.958Z,14.87
2019-02-08T14:13:41.023Z,19.43
2019-02-08T14:16:10.702Z,18.70
2019-02-08T14:18:40.308Z,18.33
2019-02-08T14:21:10.045Z,17.13
2019-02-08T14:23:39.717Z,16.70
2019-02-08T14:26:09.621Z,14.63
2019-02-08T14:28:39.424Z,14.90
2019-02-08T14:31:09.002Z,13.77
2019-02-08T14:33:38.775Z,14.60
2019-02-08T14:36:08.602Z,40.43
2019-02-08T14:38:38.329Z,15.63
2019-02-08T14:41:08.171Z,25.50
2019-02-08T14:43:37.793Z,16.20
2019-02-08T14:46:07.565Z,13.30
2019-02-08T14:48:37.272Z,12.50
2019-02-08T14:51:08.082Z,12.70
2019-02-08T14:53:37.677Z,12.70
2019-02-08T14:56:07.431Z,12.57
2019-02-08T14:58:37.028Z,12.43
2019-02-08T15:01:06.819Z,12.47
2019-02-08T15:03:36.368Z,13.00
2019-02-08T15:06:06.159Z,12.23
2019-02-08T15:08:35.958Z,13.93
2019-02-08T15:11:05.757Z,15.67
2019-02-08T15:13:35.242Z,11.63
2019-02-08T15:16:05.246Z,11.47
2019-02-08T15:18:35.191Z,11.60
2019-02-08T15:21:04.910Z,11.63
2019-02-08T15:23:34.759Z,12.13
2019-02-08T15:26:04.678Z,11.60
2019-02-08T15:28:34.512Z,11.07
2019-02-08T15:31:04.313Z,10.83
2019-02-08T15:33:34.196Z,10.47
2019-02-08T15:36:04.561Z,10.87
2019-02-08T15:38:34.246Z,11.17
2019-02-08T15:41:03.975Z,25.47
2019-02-08T15:43:33.748Z,12.77
2019-02-08T15:46:05.426Z,16.90
2019-02-08T15:48:35.367Z,12.63
2019-02-08T15:51:05.426Z,13.23
2019-02-08T15:53:35.082Z,12.47
2019-02-08T15:56:08.775Z,14.13
2019-02-08T15:58:38.314Z,10.93
2019-02-08T16:01:10.484Z,12.00
2019-02-08T16:03:40.117Z,13.07
2019-02-08T16:06:10.199Z,12.37
2019-02-08T16:08:39.962Z,14.77
2019-02-08T16:11:09.798Z,11.57
2019-02-08T16:13:39.392Z,11.77
2019-02-08T16:16:09.639Z,11.10
2019-02-08T16:18:39.328Z,11.00
2019-02-08T16:21:09.116Z,22.97
2019-02-08T16:23:38.931Z,23.03
2019-02-08T16:26:08.807Z,12.33
2019-02-08T16:28:39.525Z,10.90
2019-02-08T16:31:09.781Z,11.07
2019-02-08T16:33:39.568Z,10.00
2019-02-08T16:36:09.578Z,10.53
2019-02-08T16:38:39.195Z,10.43
2019-02-08T16:41:09.062Z,9.40
2019-02-08T16:43:38.812Z,9.60
2019-02-08T16:46:08.813Z,8.80
2019-02-08T16:48:38.668Z,8.60
2019-02-08T16:51:08.578Z,8.77
2019-02-08T16:53:38.192Z,10.30
2019-02-08T16:56:09.377Z,10.00
2019-02-08T16:58:39.345Z,9.27
2019-02-08T17:01:09.095Z,10.47
2019-02-08T17:03:38.832Z,11.27
2019-02-08T17:06:08.581Z,12.40
2019-02-08T17:08:38.234Z,14.43
2019-02-08T17:11:08.261Z,13.20
2019-02-08T17:13:37.831Z,13.33
2019-02-08T17:16:07.925Z,11.90
2019-02-08T17:18:39.018Z,12.67
2019-02-08T17:21:08.878Z,12.03
2019-02-08T17:23:38.499Z,14.03
2019-02-08T17:26:08.213Z,14.13
2019-02-08T17:28:37.842Z,15.53
2019-02-08T17:31:07.494Z,15.00
2019-02-08T17:33:37.149Z,14.77
2019-02-08T17:36:06.977Z,14.83
2019-02-08T17:38:36.618Z,13.77
2019-02-08T17:41:06.935Z,12.37
2019-02-08T17:43:36.505Z,12.47
2019-02-08T17:46:06.688Z,12.40
2019-02-08T17:48:36.453Z,11.77
2019-02-08T17:51:06.247Z,9.37
2019-02-08T17:53:35.835Z,9.03
2019-02-08T17:56:05.657Z,21.30
2019-02-08T17:58:35.448Z,16.30
2019-02-08T18:01:05.890Z,9.80
2019-02-08T18:03:35.713Z,10.53
2019-02-08T18:06:05.934Z,10.40
2019-02-08T18:08:35.451Z,10.27
2019-02-08T18:11:05.426Z,9.90
2019-02-08T18:13:35.175Z,9.97
2019-02-08T18:16:05.211Z,10.17
2019-02-08T18:18:34.866Z,10.57
2019-02-08T18:21:07.625Z,10.33
2019-02-08T18:23:37.490Z,11.23
2019-02-08T18:26:07.293Z,10.97
2019-02-08T18:28:37.032Z,10.40
2019-02-08T18:31:06.998Z,11.00
2019-02-08T18:33:36.802Z,10.83
2019-02-08T18:36:06.541Z,10.40
2019-02-08T18:38:36.374Z,11.27
2019-02-08T18:41:06.172Z,11.37
2019-02-08T18:43:35.882Z,14.90
2019-02-08T18:46:05.771Z,28.57
2019-02-08T18:48:35.308Z,35.03
2019-02-08T18:51:04.969Z,13.47
2019-02-08T18:53:34.654Z,12.80
2019-02-08T18:56:04.348Z,11.97
2019-02-08T18:58:34.190Z,11.60
2019-02-08T19:01:05.409Z,12.93
2019-02-08T19:03:35.204Z,13.27
2019-02-08T19:06:05.423Z,13.80
2019-02-08T19:08:35.213Z,13.30
2019-02-08T19:11:05.217Z,14.83
2019-02-08T19:13:34.998Z,13.90
2019-02-08T19:16:04.837Z,14.47
2019-02-08T19:18:34.493Z,13.17
2019-02-08T19:21:04.303Z,14.00
2019-02-08T19:23:33.984Z,13.37
2019-02-08T19:26:03.873Z,13.20
2019-02-08T19:28:33.681Z,13.53
2019-02-08T19:31:03.350Z,60.33
2019-02-08T19:33:33.130Z,18.93
2019-02-08T19:36:02.925Z,16.70
2019-02-08T19:38:32.385Z,25.03
2019-02-08T19:41:02.261Z,40.57
2019-02-08T19:43:32.185Z,37.70
2019-02-08T19:46:02.312Z,78.80
2019-02-08T19:48:31.937Z,68.20
2019-02-08T19:51:01.859Z,31.23
2019-02-08T19:53:31.658Z,23.23
2019-02-08T19:56:01.529Z,21.07
2019-02-08T19:58:34.534Z,20.33
2019-02-08T20:01:02.603Z,20.60
2019-02-08T20:03:32.295Z,20.13
2019-02-08T20:06:02.362Z,19.40
2019-02-08T20:08:32.311Z,20.47
2019-02-08T20:11:02.090Z,20.17
2019-02-08T20:13:32.364Z,20.73
2019-02-08T20:16:02.301Z,20.63
2019-02-08T20:18:32.230Z,20.10
2019-02-08T20:21:03.794Z,20.03
2019-02-08T20:23:33.485Z,19.50
2019-02-08T20:26:03.335Z,17.93
2019-02-08T20:28:33.050Z,23.20
2019-02-08T20:31:02.646Z,26.80
2019-02-08T20:33:32.499Z,28.00
2019-02-08T20:36:02.355Z,30.27
2019-02-08T20:38:32.167Z,30.47
2019-02-08T20:41:01.774Z,28.93
2019-02-08T20:43:31.591Z,29.10
2019-02-08T20:46:01.298Z,30.67
2019-02-08T20:48:31.234Z,31.60
2019-02-08T20:51:00.985Z,31.10
2019-02-08T20:53:30.933Z,31.07
2019-02-08T20:56:01.049Z,30.87
2019-02-08T20:58:31.271Z,27.23
2019-02-08T21:01:01.054Z,28.10
2019-02-08T21:03:30.646Z,27.33
2019-02-08T21:06:00.493Z,26.77
2019-02-08T21:08:30.341Z,28.67
2019-02-08T21:10:59.947Z,28.57
2019-02-08T21:13:29.755Z,29.70
2019-02-08T21:15:59.516Z,30.97
2019-02-08T21:18:29.236Z,31.70
2019-02-08T21:20:58.886Z,31.37
2019-02-08T21:23:28.660Z,34.87
2019-02-08T21:25:58.347Z,23.70
2019-02-08T21:28:28.280Z,27.93
2019-02-08T21:30:57.988Z,15.13
2019-02-08T21:33:27.721Z,13.33
2019-02-08T21:35:57.516Z,14.67
2019-02-08T21:38:27.097Z,13.53
2019-02-08T21:40:56.898Z,12.90
2019-02-08T21:43:26.478Z,15.33
2019-02-08T21:45:56.188Z,16.80
2019-02-08T21:48:27.376Z,16.40
2019-02-08T21:50:57.042Z,17.80
2019-02-08T21:53:26.719Z,17.80
2019-02-08T21:55:56.530Z,17.17
2019-02-08T21:58:26.108Z,17.83
2019-02-08T22:00:55.823Z,17.30
2019-02-08T22:03:25.373Z,15.87
2019-02-08T22:05:58.300Z,16.80
2019-02-08T22:08:28.097Z,17.43
2019-02-08T22:10:57.810Z,15.60
2019-02-08T22:13:27.520Z,15.33
2019-02-08T22:15:57.348Z,14.53
2019-02-08T22:18:27.244Z,13.97
2019-02-08T22:20:57.021Z,13.57
2019-02-08T22:23:26.853Z,14.20
2019-02-08T22:25:56.438Z,13.67
2019-02-08T22:28:26.268Z,13.87
2019-02-08T22:30:56.175Z,13.57
2019-02-08T22:33:25.975Z,13.33
2019-02-08T22:35:55.708Z,15.73
2019-02-08T22:38:25.378Z,15.63
2019-02-08T22:40:55.296Z,15.60
2019-02-08T22:43:24.940Z,16.07
2019-02-08T22:45:54.596Z,17.07
2019-02-08T22:48:24.354Z,17.57
2019-02-08T22:50:53.994Z,18.13
2019-02-08T22:53:23.680Z,18.17
2019-02-08T22:55:53.469Z,18.23
2019-02-08T22:58:23.020Z,19.27
2019-02-08T23:01:27.504Z,19.23
2019-02-08T23:04:01.869Z,20.60
2019-02-08T23:06:31.637Z,20.67
2019-02-08T23:09:01.382Z,22.57
2019-02-08T23:11:31.323Z,22.50
2019-02-08T23:14:01.277Z,20.77
2019-02-08T23:16:30.890Z,21.30
2019-02-08T23:19:00.502Z,20.53
2019-02-08T23:21:30.108Z,18.40
2019-02-08T23:23:59.693Z,19.07
2019-02-08T23:26:29.330Z,19.53
2019-02-08T23:28:58.921Z,19.27
2019-02-08T23:31:28.449Z,19.73
2019-02-08T23:33:58.062Z,18.93
2019-02-08T23:36:28.042Z,19.43
2019-02-08T23:38:57.628Z,20.30
2019-02-08T23:41:27.235Z,19.77
2019-02-08T23:43:57.047Z,19.87
2019-02-08T23:46:26.787Z,20.13
2019-02-08T23:48:56.459Z,19.43
2019-02-08T23:51:26.248Z,19.37
2019-02-08T23:53:55.915Z,20.77
2019-02-08T23:56:25.452Z,18.67
2019-02-08T23:58:55.012Z,15.97
